Time;durP1;ratioP1;P1;durP2;ratioP2;P2;SDS_P1;SDS_P2;PMS_P1;PMS_P2;Temp;Humidity;BMP_temperature;BMP_pressure;BME280_temperature;BME280_humidity;BME280_pressure;Samples;Min_cycle;Max_cycle;Signal;HPM_P1;HPM_P2
2024/02/08 00:01:32;;;;;;;2.17;2.07;;;;;;;;;;6184018;23;20405;-85
2024/02/08 00:04:23;;;;;;;2.63;2.30;;;;;;;;;;6192618;23;20469;-86
2024/02/08 00:07:11;;;;;;;2.27;1.90;;;;;;;;;;6194483;23;20423;-86
2024/02/08 00:10:01;;;;;;;2.90;2.70;;;;;;;;;;6192451;23;20917;-85
2024/02/08 00:12:51;;;;;;;1.90;1.80;;;;;;;;;;6193107;23;20429;-86
2024/02/08 00:15:29;;;;;;;2.67;1.80;;;;;;;;;;6165614;23;20415;-85
2024/02/08 00:21:32;;;;;;;1.90;1.60;;;;;;;;;;6208970;23;20432;-86
2024/02/08 00:24:01;;;;;;;1.90;1.80;;;;;;;;;;6216323;23;21235;-84
2024/02/08 00:26:52;;;;;;;2.40;1.53;;;;;;;;;;6194577;23;20447;-84
2024/02/08 00:29:25;;;;;;;1.70;1.60;;;;;;;;;;6228576;23;20430;-85
2024/02/08 00:31:59;;;;;;;1.93;1.80;;;;;;;;;;6241394;23;21242;-85
2024/02/08 00:34:48;;;;;;;2.90;2.17;;;;;;;;;;6237947;23;21175;-85
2024/02/08 00:37:48;;;;;;;1.67;1.57;;;;;;;;;;6244567;23;20869;-85
2024/02/08 00:40:24;;;;;;;1.93;1.83;;;;;;;;;;6252945;22;20435;-85
2024/02/08 00:43:15;;;;;;;2.23;1.80;;;;;;;;;;6245534;23;20443;-85
2024/02/08 00:45:54;;;;;;;3.20;2.37;;;;;;;;;;6215674;23;20442;-86
2024/02/08 00:48:33;;;;;;;2.20;1.73;;;;;;;;;;6238951;23;20410;-84
2024/02/08 00:51:10;;;;;;;2.47;2.27;;;;;;;;;;6241023;23;20986;-84
2024/02/08 00:53:43;;;;;;;2.70;2.17;;;;;;;;;;6244972;22;20471;-84
2024/02/08 00:56:13;;;;;;;2.13;1.93;;;;;;;;;;6239796;23;20720;-85
2024/02/08 00:58:47;;;;;;;2.10;1.90;;;;;;;;;;6243396;23;20443;-84
2024/02/08 01:01:31;;;;;;;2.80;2.30;;;;;;;;;;6241159;23;20402;-85
2024/02/08 01:04:05;;;;;;;2.33;1.63;;;;;;;;;;6242878;23;20408;-86
2024/02/08 01:06:40;;;;;;;1.63;1.53;;;;;;;;;;6241805;23;20491;-86
2024/02/08 01:09:14;;;;;;;2.20;2.00;;;;;;;;;;6239977;23;20439;-85
2024/02/08 01:11:45;;;;;;;2.47;2.20;;;;;;;;;;6233922;22;20469;-84
2024/02/08 01:14:20;;;;;;;1.83;1.60;;;;;;;;;;6238684;23;20404;-84
2024/02/08 01:16:52;;;;;;;1.57;1.47;;;;;;;;;;6236294;23;20414;-85
2024/02/08 01:19:32;;;;;;;3.00;1.43;;;;;;;;;;6236337;23;20497;-82
2024/02/08 01:22:06;;;;;;;2.17;1.90;;;;;;;;;;6230572;23;20479;-83
2024/02/08 01:24:36;;;;;;;1.97;1.80;;;;;;;;;;6239981;23;21325;-82
2024/02/08 01:27:04;;;;;;;2.40;2.20;;;;;;;;;;6241983;22;20423;-84
2024/02/08 01:29:31;;;;;;;3.00;1.97;;;;;;;;;;6257685;22;20434;-86
2024/02/08 01:32:00;;;;;;;2.43;2.23;;;;;;;;;;6262301;22;20403;-84
2024/02/08 01:34:28;;;;;;;1.90;1.80;;;;;;;;;;6231599;22;20515;-84
2024/02/08 01:36:59;;;;;;;2.80;2.57;;;;;;;;;;6231545;22;20483;-84
2024/02/08 01:39:26;;;;;;;2.20;1.87;;;;;;;;;;6215799;22;20433;-84
2024/02/08 01:41:54;;;;;;;3.53;2.83;;;;;;;;;;6182809;23;20915;-86
2024/02/08 01:44:21;;;;;;;1.80;1.70;;;;;;;;;;6186648;23;20414;-84
2024/02/08 01:46:50;;;;;;;2.13;1.60;;;;;;;;;;6185938;23;20431;-85
2024/02/08 01:49:20;;;;;;;1.90;1.80;;;;;;;;;;6188563;23;20463;-86
2024/02/08 01:51:59;;;;;;;2.00;1.80;;;;;;;;;;6184050;23;20830;-86
2024/02/08 01:54:30;;;;;;;2.20;2.00;;;;;;;;;;6183652;23;20440;-87
2024/02/08 01:56:58;;;;;;;2.60;2.40;;;;;;;;;;6184807;23;20417;-86
2024/02/08 01:59:27;;;;;;;2.63;2.43;;;;;;;;;;6184292;23;20445;-86
2024/02/08 02:01:56;;;;;;;3.90;2.70;;;;;;;;;;6182292;23;20459;-85
2024/02/08 02:04:23;;;;;;;3.10;2.87;;;;;;;;;;6178163;23;20480;-85
2024/02/08 02:06:52;;;;;;;2.70;2.50;;;;;;;;;;6179096;23;20779;-85
2024/02/08 02:09:24;;;;;;;4.20;2.93;;;;;;;;;;6194436;23;20439;-86
2024/02/08 02:11:54;;;;;;;2.30;2.07;;;;;;;;;;6183617;23;20795;-85
2024/02/08 02:14:28;;;;;;;2.57;2.17;;;;;;;;;;6185610;23;20422;-86
2024/02/08 02:17:08;;;;;;;3.20;2.63;;;;;;;;;;6201318;23;20385;-86
2024/02/08 02:19:39;;;;;;;3.07;2.57;;;;;;;;;;6180317;23;20470;-85
2024/02/08 02:22:10;;;;;;;6.67;2.77;;;;;;;;;;6178531;23;20533;-85
2024/02/08 02:24:40;;;;;;;5.67;2.43;;;;;;;;;;6180344;23;20452;-84
2024/02/08 02:27:17;;;;;;;3.90;2.93;;;;;;;;;;6179257;23;20429;-84
2024/02/08 02:29:53;;;;;;;3.67;3.37;;;;;;;;;;6178636;23;20450;-85
2024/02/08 02:32:21;;;;;;;3.60;3.30;;;;;;;;;;6177884;23;20397;-86
2024/02/08 02:34:52;;;;;;;5.13;3.23;;;;;;;;;;6179048;23;20429;-85
2024/02/08 02:37:33;;;;;;;4.50;3.30;;;;;;;;;;6181592;23;20475;-85
2024/02/08 02:40:06;;;;;;;6.70;3.57;;;;;;;;;;6177795;23;20421;-84
2024/02/08 02:42:35;;;;;;;5.27;4.23;;;;;;;;;;6179947;23;20445;-86
2024/02/08 02:45:13;;;;;;;4.13;3.67;;;;;;;;;;6183044;23;20401;-85
2024/02/08 02:47:43;;;;;;;4.70;3.60;;;;;;;;;;6179207;23;21308;-84
2024/02/08 02:50:10;;;;;;;5.03;4.53;;;;;;;;;;6174162;23;20428;-85
2024/02/08 02:52:38;;;;;;;6.47;4.43;;;;;;;;;;6191263;23;20409;-85
2024/02/08 02:55:05;;;;;;;6.77;4.67;;;;;;;;;;6181324;23;20409;-85
2024/02/08 02:57:35;;;;;;;6.30;5.43;;;;;;;;;;6168472;23;20413;-84
2024/02/08 03:00:03;;;;;;;6.30;5.30;;;;;;;;;;6173891;23;20425;-85
2024/02/08 03:02:31;;;;;;;5.63;5.03;;;;;;;;;;6171354;23;21004;-86
2024/02/08 03:04:58;;;;;;;7.27;5.53;;;;;;;;;;6173544;23;20436;-86
2024/02/08 03:07:28;;;;;;;6.43;4.90;;;;;;;;;;6172489;23;20496;-87
2024/02/08 03:09:56;;;;;;;5.43;4.83;;;;;;;;;;6174312;23;20911;-86
2024/02/08 03:12:23;;;;;;;5.13;4.10;;;;;;;;;;6176010;23;21215;-86
2024/02/08 03:14:58;;;;;;;6.30;5.10;;;;;;;;;;6173804;23;20474;-86
2024/02/08 03:17:28;;;;;;;6.60;4.70;;;;;;;;;;6177640;23;20439;-87
2024/02/08 03:19:57;;;;;;;6.00;5.50;;;;;;;;;;6176162;23;21356;-86
2024/02/08 03:22:25;;;;;;;6.20;4.80;;;;;;;;;;6174490;23;20445;-85
2024/02/08 03:24:53;;;;;;;6.07;5.47;;;;;;;;;;6174533;23;21164;-86
2024/02/08 03:27:24;;;;;;;5.30;4.80;;;;;;;;;;6176240;23;20907;-84
2024/02/08 03:29:54;;;;;;;6.53;5.23;;;;;;;;;;6175443;23;20596;-85
2024/02/08 03:32:23;;;;;;;7.30;4.60;;;;;;;;;;6174633;23;20413;-86
2024/02/08 03:34:53;;;;;;;6.20;4.33;;;;;;;;;;6200412;23;20720;-86
2024/02/08 03:37:21;;;;;;;6.73;4.53;;;;;;;;;;6181178;23;20416;-87
2024/02/08 03:39:48;;;;;;;5.73;5.00;;;;;;;;;;6182272;23;20443;-84
2024/02/08 03:42:16;;;;;;;5.40;4.23;;;;;;;;;;6180743;23;20415;-86
2024/02/08 03:44:44;;;;;;;5.63;4.30;;;;;;;;;;6181865;23;20400;-86
2024/02/08 03:47:12;;;;;;;5.17;3.73;;;;;;;;;;6192583;23;20412;-87
2024/02/08 03:49:39;;;;;;;5.97;4.30;;;;;;;;;;6221219;23;20720;-87
2024/02/08 03:52:09;;;;;;;6.13;4.40;;;;;;;;;;6191431;23;20891;-87
2024/02/08 03:54:37;;;;;;;5.77;3.97;;;;;;;;;;6184378;23;20414;-86
2024/02/08 03:57:07;;;;;;;5.53;4.80;;;;;;;;;;6180109;23;20477;-85
2024/02/08 03:59:40;;;;;;;6.93;4.23;;;;;;;;;;6209708;23;20745;-86
2024/02/08 04:02:09;;;;;;;10.73;4.70;;;;;;;;;;6206393;23;20420;-86
2024/02/08 04:04:49;;;;;;;4.63;3.50;;;;;;;;;;6184824;23;20486;-88
2024/02/08 04:07:45;;;;;;;5.03;4.23;;;;;;;;;;6183801;23;20418;-86
2024/02/08 04:53:52;;;;;;;7.70;5.20;;;;;;;;;;6209035;23;20416;-87
2024/02/08 04:56:20;;;;;;;6.83;5.60;;;;;;;;;;6181766;23;20516;-85
2024/02/08 04:58:48;;;;;;;9.40;6.40;;;;;;;;;;6183040;23;20420;-86
2024/02/08 05:01:38;;;;;;;8.83;5.20;;;;;;;;;;6186734;23;20506;-86
2024/02/08 05:04:11;;;;;;;8.73;6.17;;;;;;;;;;6187637;23;20432;-84
2024/02/08 05:06:50;;;;;;;8.50;5.40;;;;;;;;;;6195027;23;20789;-87
2024/02/08 05:09:20;;;;;;;10.13;5.80;;;;;;;;;;6220825;23;20514;-86
2024/02/08 05:11:50;;;;;;;8.53;6.87;;;;;;;;;;6193944;23;20409;-88
2024/02/08 05:14:27;;;;;;;13.73;6.07;;;;;;;;;;6192533;23;20419;-87
2024/02/08 05:16:59;;;;;;;7.83;5.83;;;;;;;;;;6190310;23;20459;-85
2024/02/08 05:19:30;;;;;;;8.10;5.57;;;;;;;;;;6189665;23;20450;-86
2024/02/08 05:22:05;;;;;;;7.60;5.57;;;;;;;;;;6207645;23;20420;-85
2024/02/08 05:24:32;;;;;;;7.37;6.03;;;;;;;;;;6178388;23;20683;-86
2024/02/08 05:27:14;;;;;;;12.03;6.60;;;;;;;;;;6199315;23;20439;-87
2024/02/08 05:30:01;;;;;;;10.57;6.07;;;;;;;;;;6181161;23;20448;-86
2024/02/08 05:32:33;;;;;;;9.20;6.00;;;;;;;;;;6200692;23;20415;-86
2024/02/08 05:35:05;;;;;;;12.50;7.23;;;;;;;;;;6176431;23;21468;-86
2024/02/08 05:37:40;;;;;;;9.43;6.53;;;;;;;;;;6202198;23;21050;-87
2024/02/08 05:40:16;;;;;;;12.80;7.23;;;;;;;;;;6191469;22;20428;-86
2024/02/08 05:42:47;;;;;;;8.80;6.20;;;;;;;;;;6198851;23;20514;-86
2024/02/08 05:45:33;;;;;;;10.93;6.50;;;;;;;;;;6202833;23;20507;-86
2024/02/08 05:48:05;;;;;;;8.60;5.70;;;;;;;;;;6187789;23;20422;-85
2024/02/08 05:50:39;;;;;;;9.30;6.20;;;;;;;;;;6188878;23;20457;-85
2024/02/08 05:53:09;;;;;;;9.87;5.63;;;;;;;;;;6186913;23;20490;-85
2024/02/08 05:55:47;;;;;;;9.33;6.17;;;;;;;;;;6187695;23;20408;-85
2024/02/08 05:58:22;;;;;;;8.50;4.80;;;;;;;;;;6186618;23;20407;-87
2024/02/08 06:01:01;;;;;;;9.20;5.40;;;;;;;;;;6188574;23;20744;-86
2024/02/08 06:03:38;;;;;;;6.97;5.53;;;;;;;;;;6188140;23;20440;-85
2024/02/08 06:15:33;;;;;;;9.00;5.80;;;;;;;;;;6150417;23;20423;-86
2024/02/08 06:18:19;;;;;;;11.27;6.27;;;;;;;;;;6210847;23;20424;-85
2024/02/08 06:20:51;;;;;;;10.17;6.27;;;;;;;;;;6193777;23;20514;-84
2024/02/08 06:23:26;;;;;;;10.43;6.83;;;;;;;;;;6181738;23;20452;-85
2024/02/08 06:28:52;;;;;;;7.93;5.13;;;;;;;;;;6210323;23;20440;-87
2024/02/08 06:31:40;;;;;;;10.23;7.10;;;;;;;;;;6189232;23;20945;-85
2024/02/08 06:34:11;;;;;;;11.80;6.63;;;;;;;;;;6183270;23;20426;-87
2024/02/08 06:37:00;;;;;;;7.70;5.13;;;;;;;;;;6205197;23;20416;-85
2024/02/08 06:39:44;;;;;;;7.77;6.30;;;;;;;;;;6183797;23;20436;-86
2024/02/08 06:42:44;;;;;;;10.00;5.67;;;;;;;;;;6182906;23;20476;-85
2024/02/08 07:39:34;;;;;;;12.80;7.07;;;;;;;;;;6208746;23;20437;-86
2024/02/08 07:42:29;;;;;;;10.63;5.57;;;;;;;;;;6213577;23;20445;-84
2024/02/08 07:45:09;;;;;;;11.50;5.87;;;;;;;;;;6196688;23;20441;-86
2024/02/08 07:47:57;;;;;;;10.83;6.90;;;;;;;;;;6178096;23;20495;-86
2024/02/08 07:50:50;;;;;;;9.07;6.23;;;;;;;;;;6184785;23;20444;-87
2024/02/08 07:56:46;;;;;;;7.53;4.17;;;;;;;;;;6144108;23;20532;-86
2024/02/08 07:59:26;;;;;;;10.63;6.90;;;;;;;;;;6120865;23;20442;-86
2024/02/08 08:02:06;;;;;;;10.70;6.37;;;;;;;;;;6167751;22;20407;-85
2024/02/08 08:04:53;;;;;;;11.60;5.20;;;;;;;;;;6195367;22;20531;-87
2024/02/08 08:07:23;;;;;;;7.30;4.60;;;;;;;;;;6230118;22;20478;-86
2024/02/08 08:10:09;;;;;;;;;;;;;;;;;;;;;
2024/02/08 08:13:06;;;;;;;8.60;5.27;;;;;;;;;;6233145;22;20438;-86
2024/02/08 08:16:35;;;;;;;5.90;4.10;;;;;;;;;;6177325;23;20414;-85
2024/02/08 08:18:57;;;;;;;9.90;5.90;;;;;;;;;;6212344;23;20416;-86
2024/02/08 08:24:29;;;;;;;8.47;4.80;;;;;;;;;;6213248;23;20447;-85
2024/02/08 08:27:41;;;;;;;8.27;4.90;;;;;;;;;;6184452;23;20431;-85
2024/02/08 08:30:27;;;;;;;8.13;4.70;;;;;;;;;;6209561;23;20438;-85
2024/02/08 08:35:45;;;;;;;7.93;4.60;;;;;;;;;;6210005;23;20491;-87
2024/02/08 08:41:14;;;;;;;7.60;4.87;;;;;;;;;;6211156;23;20515;-87
2024/02/08 08:43:55;;;;;;;6.43;3.83;;;;;;;;;;6185525;23;20483;-85
2024/02/08 08:46:32;;;;;;;6.47;5.07;;;;;;;;;;6185133;23;20416;-86
2024/02/08 08:49:14;;;;;;;5.87;3.90;;;;;;;;;;6185480;23;20965;-87
2024/02/08 08:51:58;;;;;;;4.60;3.80;;;;;;;;;;6185795;23;20414;-85
2024/02/08 08:54:29;;;;;;;5.30;3.97;;;;;;;;;;6189839;23;20787;-86
2024/02/08 08:57:12;;;;;;;5.63;3.87;;;;;;;;;;6186110;23;20409;-87
2024/02/08 08:59:44;;;;;;;4.80;3.80;;;;;;;;;;6178442;23;20456;-87
2024/02/08 09:02:19;;;;;;;5.77;3.90;;;;;;;;;;6181867;23;20427;-86
2024/02/08 09:04:54;;;;;;;8.13;4.10;;;;;;;;;;6211827;23;20540;-85
2024/02/08 09:07:37;;;;;;;6.20;3.97;;;;;;;;;;6187537;23;20436;-86
2024/02/08 09:10:07;;;;;;;4.63;3.27;;;;;;;;;;6191676;23;20452;-85
2024/02/08 09:12:39;;;;;;;6.73;3.57;;;;;;;;;;6187260;23;20382;-86
2024/02/08 09:15:19;;;;;;;6.10;3.40;;;;;;;;;;6190693;23;20444;-86
2024/02/08 09:17:53;;;;;;;4.90;3.17;;;;;;;;;;6196761;23;20443;-86
2024/02/08 09:20:23;;;;;;;3.53;2.83;;;;;;;;;;6216714;23;20439;-86
2024/02/08 09:22:52;;;;;;;5.27;3.20;;;;;;;;;;6196932;23;20442;-86
2024/02/08 09:25:24;;;;;;;5.33;3.43;;;;;;;;;;6199285;23;20429;-87
2024/02/08 09:28:23;;;;;;;6.77;3.43;;;;;;;;;;6197676;23;20417;-85
2024/02/08 09:30:56;;;;;;;5.57;3.87;;;;;;;;;;6218908;23;20447;-85
2024/02/08 09:33:44;;;;;;;5.77;3.57;;;;;;;;;;6194219;23;20423;-85
2024/02/08 09:36:25;;;;;;;5.83;4.00;;;;;;;;;;6191991;23;20416;-85
2024/02/08 09:38:56;;;;;;;4.00;3.40;;;;;;;;;;6189152;23;20441;-86
2024/02/08 09:41:44;;;;;;;4.80;3.40;;;;;;;;;;6189882;23;20423;-87
2024/02/08 09:44:26;;;;;;;5.70;3.20;;;;;;;;;;6168896;23;20445;-85
2024/02/08 09:47:04;;;;;;;4.43;3.20;;;;;;;;;;6217408;23;20447;-87
2024/02/08 09:49:46;;;;;;;5.57;3.73;;;;;;;;;;6193952;23;21107;-88
2024/02/08 09:52:40;;;;;;;;;;;;;;;;;;;;;
2024/02/08 09:55:24;;;;;;;4.60;3.70;;;;;;;;;;6216350;23;20417;-85
2024/02/08 09:58:13;;;;;;;5.47;3.97;;;;;;;;;;6191839;23;20428;-86
2024/02/08 10:01:43;;;;;;;5.17;3.23;;;;;;;;;;6223189;23;20421;-87
2024/02/08 10:03:39;;;;;;;4.83;3.83;;;;;;;;;;6207077;23;20411;-84
2024/02/08 10:06:38;;;;;;;6.97;3.87;;;;;;;;;;6208251;23;20471;-87
2024/02/08 10:09:40;;;;;;;4.50;3.70;;;;;;;;;;6198955;23;20456;-87
2024/02/08 10:12:28;;;;;;;4.23;3.47;;;;;;;;;;6192671;23;20412;-86
2024/02/08 10:15:13;;;;;;;5.90;3.87;;;;;;;;;;6190369;23;20400;-84
2024/02/08 10:17:52;;;;;;;6.93;3.90;;;;;;;;;;6198958;23;20449;-86
2024/02/08 10:22:57;;;;;;;4.90;3.90;;;;;;;;;;6215888;23;20443;-84
2024/02/08 10:28:32;;;;;;;7.47;4.77;;;;;;;;;;6212050;23;20415;-87
2024/02/08 10:31:28;;;;;;;5.07;3.20;;;;;;;;;;6191112;23;20470;-89
2024/02/08 10:38:09;;;;;;;5.60;4.13;;;;;;;;;;6214794;23;20452;-84
2024/02/08 10:41:19;;;;;;;6.80;4.33;;;;;;;;;;6187369;23;20408;-86
2024/02/08 10:50:20;;;;;;;3.47;3.17;;;;;;;;;;6183607;23;20435;-86
2024/02/08 10:56:40;;;;;;;5.90;3.30;;;;;;;;;;6204056;23;20400;-86
2024/02/08 10:59:55;;;;;;;4.00;3.03;;;;;;;;;;6184001;23;20431;-86
2024/02/08 11:06:43;;;;;;;;;;;;;;;;;;;;;
2024/02/08 11:09:19;;;;;;;5.50;4.60;;;;;;;;;;6187827;23;20430;-85
2024/02/08 11:12:08;;;;;;;5.37;4.37;;;;;;;;;;6195408;23;20439;-86
2024/02/08 11:15:13;;;;;;;4.80;3.30;;;;;;;;;;6194677;23;20405;-85
2024/02/08 11:18:02;;;;;;;;;;;;;;;;;;;;;
2024/02/08 11:20:57;;;;;;;3.80;3.03;;;;;;;;;;6214350;23;20437;-87
2024/02/08 11:24:03;;;;;;;4.70;3.70;;;;;;;;;;6194233;23;20495;-87
2024/02/08 11:26:56;;;;;;;4.10;3.33;;;;;;;;;;6176237;23;20411;-86
2024/02/08 11:29:59;;;;;;;3.63;2.83;;;;;;;;;;6192721;23;20585;-86
2024/02/08 11:32:52;;;;;;;4.20;3.53;;;;;;;;;;6176899;23;20401;-86
2024/02/08 11:35:31;;;;;;;4.67;3.17;;;;;;;;;;6189828;23;20411;-85
2024/02/08 11:38:19;;;;;;;3.40;2.83;;;;;;;;;;6188528;23;20422;-85
2024/02/08 11:41:44;;;;;;;;;;;;;;;;;;;;;
2024/02/08 11:44:35;;;;;;;6.93;4.93;;;;;;;;;;6120394;23;20888;-85
2024/02/08 11:47:21;;;;;;;3.23;2.87;;;;;;;;;;6186995;23;20427;-87
2024/02/08 11:50:04;;;;;;;3.23;2.33;;;;;;;;;;6186962;23;20437;-87
2024/02/08 11:53:22;;;;;;;3.13;2.80;;;;;;;;;;6190455;23;20409;-85
2024/02/08 11:59:59;;;;;;;3.53;3.23;;;;;;;;;;6217785;23;20446;-88
2024/02/08 12:02:58;;;;;;;2.63;2.40;;;;;;;;;;6192799;23;20464;-87
2024/02/08 12:05:28;;;;;;;3.60;2.53;;;;;;;;;;6197805;23;20469;-85
2024/02/08 12:08:18;;;;;;;3.70;3.40;;;;;;;;;;6199453;23;20412;-85
2024/02/08 12:12:06;;;;;;;;;;;;;;;;;;;;;
2024/02/08 12:15:20;;;;;;;3.03;2.60;;;;;;;;;;6139462;23;20384;-87
2024/02/08 12:18:24;;;;;;;2.93;2.50;;;;;;;;;;6188470;23;20465;-86
2024/02/08 12:21:01;;;;;;;3.53;2.67;;;;;;;;;;6186282;23;20427;-86
2024/02/08 12:23:45;;;;;;;;;;;;;;;;;;;;;
2024/02/08 12:26:53;;;;;;;4.83;3.67;;;;;;;;;;6216364;23;20401;-84
2024/02/08 12:29:45;;;;;;;2.93;2.63;;;;;;;;;;6194451;23;20429;-86
2024/02/08 12:32:44;;;;;;;2.87;2.40;;;;;;;;;;6200734;23;20448;-86
2024/02/08 12:48:10;;;;;;;2.93;2.23;;;;;;;;;;6051086;23;20474;-88
2024/02/08 12:51:14;;;;;;;4.63;3.17;;;;;;;;;;6221558;23;21615;-85
2024/02/08 12:54:46;;;;;;;3.20;2.53;;;;;;;;;;6222984;23;20527;-87
2024/02/08 12:58:03;;;;;;;;;;;;;;;;;;;;;
2024/02/08 13:01:18;;;;;;;3.00;2.63;;;;;;;;;;6242859;23;20550;-87
2024/02/08 13:04:04;;;;;;;3.03;2.73;;;;;;;;;;6204438;23;20423;-87
2024/02/08 13:07:10;;;;;;;;;;;;;;;;;;;;;
2024/02/08 13:09:48;;;;;;;2.80;2.60;;;;;;;;;;6245061;23;20494;-86
2024/02/08 13:12:37;;;;;;;3.43;3.17;;;;;;;;;;6203785;23;20409;-86
2024/02/08 13:15:28;;;;;;;3.87;3.40;;;;;;;;;;6121917;23;20468;-84
2024/02/08 13:18:54;;;;;;;3.30;2.60;;;;;;;;;;6207352;23;20455;-85
2024/02/08 13:21:34;;;;;;;4.90;3.20;;;;;;;;;;6215673;23;20413;-86
2024/02/08 13:24:42;;;;;;;;;;;;;;;;;;;;;
2024/02/08 13:27:30;;;;;;;3.00;2.70;;;;;;;;;;6221805;23;20400;-85
2024/02/08 13:30:30;;;;;;;3.63;3.23;;;;;;;;;;6225308;23;20537;-87
2024/02/08 13:33:31;;;;;;;4.37;3.40;;;;;;;;;;6197184;23;20441;-84
2024/02/08 13:36:19;;;;;;;2.80;2.60;;;;;;;;;;6217935;23;20474;-87
2024/02/08 13:39:04;;;;;;;3.27;3.03;;;;;;;;;;6218495;23;20432;-87
2024/02/08 13:42:13;;;;;;;3.00;2.70;;;;;;;;;;6208881;23;20392;-87
2024/02/08 13:44:48;;;;;;;5.23;3.40;;;;;;;;;;6246373;23;20405;-86
2024/02/08 13:47:29;;;;;;;5.27;3.30;;;;;;;;;;6222361;23;20457;-86
2024/02/08 13:50:36;;;;;;;3.43;3.13;;;;;;;;;;6227096;23;20412;-87
2024/02/08 13:53:16;;;;;;;3.43;3.13;;;;;;;;;;6219450;23;21145;-86
2024/02/08 13:56:13;;;;;;;3.90;2.90;;;;;;;;;;6202921;23;20417;-85
2024/02/08 13:59:04;;;;;;;3.13;2.70;;;;;;;;;;6218720;23;20441;-87
2024/02/08 14:01:39;;;;;;;4.40;3.00;;;;;;;;;;6220128;23;20409;-85
2024/02/08 14:04:24;;;;;;;3.03;2.73;;;;;;;;;;6246994;23;20870;-85
2024/02/08 14:07:11;;;;;;;7.03;3.63;;;;;;;;;;6219916;23;20408;-86
2024/02/08 14:09:43;;;;;;;3.70;2.90;;;;;;;;;;6219068;23;20923;-86
2024/02/08 14:12:48;;;;;;;3.57;3.27;;;;;;;;;;6217262;23;20544;-86
2024/02/08 14:15:24;;;;;;;3.50;2.97;;;;;;;;;;6199657;23;20418;-86
2024/02/08 14:18:22;;;;;;;6.23;3.57;;;;;;;;;;6223940;23;20408;-86
2024/02/08 14:21:11;;;;;;;3.80;3.00;;;;;;;;;;6200319;23;20459;-85
2024/02/08 14:23:49;;;;;;;4.63;3.63;;;;;;;;;;6245651;23;20408;-86
2024/02/08 14:26:41;;;;;;;4.53;2.70;;;;;;;;;;6222159;23;20456;-86
2024/02/08 14:29:31;;;;;;;3.33;2.60;;;;;;;;;;6215842;23;20476;-86
2024/02/08 14:32:04;;;;;;;3.60;3.23;;;;;;;;;;6220900;22;20471;-86
2024/02/08 14:34:49;;;;;;;3.37;3.07;;;;;;;;;;6234760;22;20423;-85
2024/02/08 14:37:22;;;;;;;4.47;3.60;;;;;;;;;;6238097;22;20396;-86
2024/02/08 14:42:46;;;;;;;3.83;3.20;;;;;;;;;;6235356;22;20464;-87
2024/02/08 14:45:17;;;;;;;6.27;3.50;;;;;;;;;;6223604;22;20526;-86
2024/02/08 14:48:03;;;;;;;4.83;3.83;;;;;;;;;;6223225;23;20424;-87
2024/02/08 14:51:29;;;;;;;3.33;2.70;;;;;;;;;;6194083;23;20421;-86
2024/02/08 14:53:58;;;;;;;5.47;3.70;;;;;;;;;;6200818;23;20649;-87
2024/02/08 14:56:44;;;;;;;5.33;3.50;;;;;;;;;;6228632;23;20481;-87
2024/02/08 14:59:41;;;;;;;3.13;2.83;;;;;;;;;;6198558;23;20426;-85
2024/02/08 15:02:21;;;;;;;3.83;3.40;;;;;;;;;;6218117;23;20426;-87
2024/02/08 15:05:00;;;;;;;3.07;2.87;;;;;;;;;;6212956;23;20427;-86
2024/02/08 15:08:29;;;;;;;3.77;3.47;;;;;;;;;;6190417;23;20456;-86
2024/02/08 15:11:02;;;;;;;4.50;3.27;;;;;;;;;;6215693;23;20485;-86
2024/02/08 15:14:02;;;;;;;4.03;3.33;;;;;;;;;;6210033;23;20365;-85
2024/02/08 15:16:44;;;;;;;4.43;2.80;;;;;;;;;;6230170;23;20393;-86
2024/02/08 15:19:27;;;;;;;3.47;3.00;;;;;;;;;;6203286;23;20432;-85
2024/02/08 15:25:34;;;;;;;5.80;3.00;;;;;;;;;;6224701;22;20487;-87
2024/02/08 15:28:56;;;;;;;2.83;2.57;;;;;;;;;;6201051;23;20468;-86
2024/02/08 15:36:47;;;;;;;3.20;2.90;;;;;;;;;;6227744;23;20402;-86
2024/02/08 15:39:29;;;;;;;3.80;3.13;;;;;;;;;;6202977;23;20463;-87
2024/02/08 15:42:01;;;;;;;3.57;3.00;;;;;;;;;;6202021;23;20504;-88
2024/02/08 15:44:35;;;;;;;5.70;2.90;;;;;;;;;;6202459;23;20435;-87
2024/02/08 15:47:15;;;;;;;3.80;3.30;;;;;;;;;;6230545;22;20441;-88
2024/02/08 15:49:43;;;;;;;3.70;3.27;;;;;;;;;;6228321;23;20452;-86
2024/02/08 15:52:22;;;;;;;5.40;3.60;;;;;;;;;;6201613;23;20482;-84
2024/02/08 15:55:14;;;;;;;3.67;2.50;;;;;;;;;;6226970;23;20409;-86
2024/02/08 15:58:10;;;;;;;4.80;3.00;;;;;;;;;;6204138;23;20390;-86
2024/02/08 16:03:43;;;;;;;4.13;3.10;;;;;;;;;;6216873;23;21087;-87
2024/02/08 16:09:35;;;;;;;3.27;2.80;;;;;;;;;;6217381;23;20493;-87
2024/02/08 16:15:09;;;;;;;3.70;3.37;;;;;;;;;;6190639;23;21051;-86
2024/02/08 16:17:36;;;;;;;5.93;2.90;;;;;;;;;;6189976;23;20382;-87
2024/02/08 16:20:23;;;;;;;3.20;3.00;;;;;;;;;;6212253;23;20448;-86
2024/02/08 16:22:54;;;;;;;4.40;3.40;;;;;;;;;;6189958;23;21218;-86
2024/02/08 16:28:29;;;;;;;4.27;3.10;;;;;;;;;;6215416;23;20430;-86
2024/02/08 16:31:24;;;;;;;4.03;3.63;;;;;;;;;;6185162;23;20401;-88
2024/02/08 16:34:22;;;;;;;5.30;3.40;;;;;;;;;;6196985;23;20389;-86
2024/02/08 16:36:52;;;;;;;4.00;3.57;;;;;;;;;;6221539;23;20417;-86
2024/02/08 16:39:42;;;;;;;3.90;3.50;;;;;;;;;;6196075;23;20440;-86
2024/02/08 16:42:18;;;;;;;7.10;4.20;;;;;;;;;;6196111;23;20505;-87
2024/02/08 16:45:17;;;;;;;5.67;4.13;;;;;;;;;;6196740;23;20417;-87
2024/02/08 16:48:08;;;;;;;6.77;4.90;;;;;;;;;;6195139;23;20417;-88
2024/02/08 16:50:45;;;;;;;5.77;4.50;;;;;;;;;;6196814;23;20508;-88
2024/02/08 16:53:14;;;;;;;7.93;6.47;;;;;;;;;;6221673;23;20410;-86
2024/02/08 16:55:47;;;;;;;6.30;5.30;;;;;;;;;;6196181;23;20456;-86
2024/02/08 16:58:27;;;;;;;8.43;5.50;;;;;;;;;;6193153;23;20965;-85
2024/02/08 17:01:02;;;;;;;8.43;6.10;;;;;;;;;;6193353;23;20445;-86
2024/02/08 17:06:27;;;;;;;7.63;5.70;;;;;;;;;;6218392;23;20480;-87
2024/02/08 17:09:34;;;;;;;10.63;6.93;;;;;;;;;;6215063;23;20432;-86
2024/02/08 17:12:18;;;;;;;10.93;6.70;;;;;;;;;;6208654;23;20418;-86
2024/02/08 17:14:56;;;;;;;9.20;6.50;;;;;;;;;;6189394;23;20420;-87
2024/02/08 17:17:47;;;;;;;8.13;5.33;;;;;;;;;;6192123;23;20452;-87
2024/02/08 17:20:37;;;;;;;9.23;5.40;;;;;;;;;;6191947;23;20906;-86
2024/02/08 17:23:19;;;;;;;7.87;5.70;;;;;;;;;;6193807;23;20409;-87
2024/02/08 17:26:15;;;;;;;6.57;4.20;;;;;;;;;;6203915;22;20456;-87
2024/02/08 17:31:33;;;;;;;10.97;5.93;;;;;;;;;;6206355;23;20449;-86
2024/02/08 17:34:09;;;;;;;12.00;5.77;;;;;;;;;;6184262;23;20969;-89
2024/02/08 17:36:57;;;;;;;12.50;6.53;;;;;;;;;;6039135;23;21217;-88
2024/02/08 17:39:41;;;;;;;12.10;7.00;;;;;;;;;;6039065;23;20440;-87
2024/02/08 17:46:02;;;;;;;9.43;4.50;;;;;;;;;;6060881;23;20501;-87
2024/02/08 17:52:46;;;;;;;5.30;4.10;;;;;;;;;;6005772;23;20763;-85
2024/02/08 17:56:09;;;;;;;12.33;4.30;;;;;;;;;;6030044;23;20373;-86
2024/02/08 17:58:56;;;;;;;;;;;;;;;;;;;;;
2024/02/08 18:05:47;;;;;;;3.97;3.03;;;;;;;;;;6122443;23;20469;-86
2024/02/08 18:08:53;;;;;;;4.70;3.27;;;;;;;;;;5970155;23;20416;-85
2024/02/08 18:11:21;;;;;;;5.80;3.27;;;;;;;;;;6013147;23;20735;-85
2024/02/08 18:14:00;;;;;;;6.57;3.00;;;;;;;;;;6099215;23;21188;-86
2024/02/08 18:16:43;;;;;;;5.20;2.90;;;;;;;;;;6113591;23;20495;-86
2024/02/08 18:45:46;;;;;;;;;;;;;;;;;;;;;
2024/02/08 18:51:15;;;;;;;3.73;2.63;;;;;;;;;;6210114;23;20898;-86
2024/02/08 18:54:20;;;;;;;4.40;2.70;;;;;;;;;;6171920;23;20409;-85
2024/02/08 19:00:34;;;;;;;5.40;2.40;;;;;;;;;;6215514;23;20501;-87
2024/02/08 19:03:40;;;;;;;6.20;2.47;;;;;;;;;;6186565;23;20416;-86
2024/02/08 19:06:25;;;;;;;4.53;2.40;;;;;;;;;;6209837;23;20444;-85
2024/02/08 19:09:18;;;;;;;5.20;2.23;;;;;;;;;;6142035;23;20430;-86
2024/02/08 19:12:07;;;;;;;;;;;;;;;;;;;;;
2024/02/08 19:15:06;;;;;;;3.27;2.00;;;;;;;;;;6210608;23;20423;-86
2024/02/08 19:18:14;;;;;;;5.13;2.23;;;;;;;;;;6184902;23;20525;-86
2024/02/08 19:21:04;;;;;;;2.90;2.37;;;;;;;;;;6148740;23;20437;-86
2024/02/08 19:23:42;;;;;;;5.63;2.47;;;;;;;;;;6206703;23;20409;-86
2024/02/08 19:26:42;;;;;;;4.63;2.70;;;;;;;;;;6189313;23;20446;-86
2024/02/08 19:29:53;;;;;;;4.83;2.77;;;;;;;;;;6183986;23;20445;-86
2024/02/08 19:32:45;;;;;;;4.97;3.00;;;;;;;;;;6086487;23;20385;-87
2024/02/08 19:35:24;;;;;;;4.03;2.80;;;;;;;;;;6091271;23;20437;-87
2024/02/08 19:38:08;;;;;;;3.27;2.83;;;;;;;;;;6091502;23;20416;-87
2024/02/08 19:40:51;;;;;;;3.93;2.80;;;;;;;;;;6091722;23;20437;-86
2024/02/08 19:43:35;;;;;;;3.60;2.83;;;;;;;;;;6090983;23;21175;-85
2024/02/08 19:46:11;;;;;;;4.77;3.07;;;;;;;;;;6089665;23;21138;-85
2024/02/08 19:49:09;;;;;;;4.50;3.00;;;;;;;;;;6088395;23;20437;-86
2024/02/08 19:51:42;;;;;;;3.50;3.20;;;;;;;;;;6071864;23;20421;-87
2024/02/08 19:54:37;;;;;;;4.67;3.10;;;;;;;;;;6087880;23;20416;-86
2024/02/08 19:57:13;;;;;;;2.90;2.50;;;;;;;;;;6089940;23;20421;-86
2024/02/08 19:59:53;;;;;;;2.80;2.47;;;;;;;;;;6086339;23;20519;-86
2024/02/08 20:02:44;;;;;;;4.87;3.30;;;;;;;;;;6083055;23;20432;-86
2024/02/08 20:05:21;;;;;;;3.60;2.80;;;;;;;;;;6085682;23;20421;-86
2024/02/08 20:08:03;;;;;;;4.07;3.10;;;;;;;;;;6085464;23;20472;-86
2024/02/08 20:10:53;;;;;;;4.10;3.10;;;;;;;;;;6168057;23;20954;-87
2024/02/08 20:13:31;;;;;;;3.93;2.77;;;;;;;;;;6177135;23;20445;-87
2024/02/08 20:16:19;;;;;;;4.00;2.73;;;;;;;;;;6161384;23;20954;-87
2024/02/08 20:19:09;;;;;;;4.17;3.00;;;;;;;;;;6179872;23;20413;-86
2024/02/08 20:21:51;;;;;;;5.87;3.70;;;;;;;;;;6183291;23;20524;-87
2024/02/08 20:24:39;;;;;;;6.60;4.07;;;;;;;;;;6184048;23;20579;-86